14°C Temp
13°C Dewpoint
% Humidity
Temperature
16 KM/H
10 MPH
9 KTS
200°
South South
West

Wind Speed
Partly Cloudy
Conditions
Pressure 1017.92 (hPa) - 30.06 (in)
Visibility 6.2 (mi) - 10.0 (km)

Current Conditions
EHAM
Location 6km (3.2mi)
Metar :EHAM 200125Z 20009KT 9999 FEW024CB FEW032 14/13 Q1018 NOSIG
Tue 20th August 03:25 am

Airport
  Metar Aviation API Data Provided by https://www.checkwx.com/ PHP scripts by weather34.com ©2019